sensor_id;sensor_type;location;lat;lon;timestamp;pressure;altitude;pressure_sealevel;temperature;humidity
32243;BME280;18731;42.830;24.390;2023-02-19T04:01:09;94808.34;;;1.98;81.76
32243;BME280;18731;42.830;24.390;2023-02-19T04:03:48;94792.53;;;2.03;81.95
32243;BME280;18731;42.830;24.390;2023-02-19T04:06:20;94787.25;;;2.08;81.09
32243;BME280;18731;42.830;24.390;2023-02-19T04:08:49;94786.22;;;1.99;80.59
32243;BME280;18731;42.830;24.390;2023-02-19T04:11:17;94817.28;;;2.07;79.93
32243;BME280;18731;42.830;24.390;2023-02-19T04:13:56;94815.69;;;2.01;80.13
32243;BME280;18731;42.830;24.390;2023-02-19T04:16:26;94814.66;;;1.97;79.93
32243;BME280;18731;42.830;24.390;2023-02-19T04:19:11;94813.88;;;1.96;80.91
32243;BME280;18731;42.830;24.390;2023-02-19T04:21:37;94809.91;;;1.99;81.18
32243;BME280;18731;42.830;24.390;2023-02-19T04:24:13;94807.53;;;1.92;81.03
32243;BME280;18731;42.830;24.390;2023-02-19T04:26:41;94813.59;;;1.92;81.57
32243;BME280;18731;42.830;24.390;2023-02-19T04:29:07;94815.47;;;1.82;80.94
32243;BME280;18731;42.830;24.390;2023-02-19T04:31:34;94811.50;;;1.89;81.07
32243;BME280;18731;42.830;24.390;2023-02-19T04:34:01;94807.81;;;1.90;81.01
32243;BME280;18731;42.830;24.390;2023-02-19T04:36:29;94808.34;;;1.87;81.17
32243;BME280;18731;42.830;24.390;2023-02-19T04:38:54;94797.03;;;1.77;81.37
32243;BME280;18731;42.830;24.390;2023-02-19T04:41:20;94801.25;;;1.83;81.10
32243;BME280;18731;42.830;24.390;2023-02-19T04:43:45;94803.59;;;1.84;80.91
32243;BME280;18731;42.830;24.390;2023-02-19T04:46:11;94811.78;;;1.83;80.52
32243;BME280;18731;42.830;24.390;2023-02-19T04:48:36;94818.09;;;1.87;80.47
32243;BME280;18731;42.830;24.390;2023-02-19T04:51:06;94815.72;;;1.85;80.82
32243;BME280;18731;42.830;24.390;2023-02-19T04:53:32;94824.13;;;1.92;80.80
32243;BME280;18731;42.830;24.390;2023-02-19T04:56:05;94818.34;;;1.80;80.75
32243;BME280;18731;42.830;24.390;2023-02-19T04:58:30;94820.97;;;1.80;81.80
32243;BME280;18731;42.830;24.390;2023-02-19T05:00:56;94818.34;;;1.80;82.09
32243;BME280;18731;42.830;24.390;2023-02-19T05:03:21;94796.25;;;1.71;81.60
32243;BME280;18731;42.830;24.390;2023-02-19T05:05:47;94824.94;;;1.88;81.18
32243;BME280;18731;42.830;24.390;2023-02-19T05:08:13;94802.03;;;1.73;80.81
32243;BME280;18731;42.830;24.390;2023-02-19T05:10:38;94818.88;;;1.87;81.10
32243;BME280;18731;42.830;24.390;2023-02-19T05:13:04;94815.19;;;1.78;81.15
32243;BME280;18731;42.830;24.390;2023-02-19T05:15:29;94818.88;;;1.77;80.81
32243;BME280;18731;42.830;24.390;2023-02-19T05:17:55;94815.72;;;1.75;80.86
32243;BME280;18731;42.830;24.390;2023-02-19T05:20:20;94818.34;;;1.80;81.36
32243;BME280;18731;42.830;24.390;2023-02-19T05:22:47;94826.78;;;1.82;81.28
32243;BME280;18731;42.830;24.390;2023-02-19T05:25:13;94834.66;;;1.72;81.09
32243;BME280;18731;42.830;24.390;2023-02-19T05:27:39;94835.19;;;1.64;82.05
32243;BME280;18731;42.830;24.390;2023-02-19T05:30:04;94830.47;;;1.66;83.84
32243;BME280;18731;42.830;24.390;2023-02-19T05:32:30;94825.19;;;1.71;83.60
32243;BME280;18731;42.830;24.390;2023-02-19T05:34:56;94841.50;;;1.73;82.42
32243;BME280;18731;42.830;24.390;2023-02-19T05:37:21;94856.78;;;1.86;82.07
32243;BME280;18731;42.830;24.390;2023-02-19T05:39:47;94849.41;;;1.93;82.08
32243;BME280;18731;42.830;24.390;2023-02-19T05:42:13;94853.06;;;2.03;82.27
32243;BME280;18731;42.830;24.390;2023-02-19T05:44:40;94840.72;;;1.98;81.32
32243;BME280;18731;42.830;24.390;2023-02-19T05:47:06;94847.81;;;2.03;81.33
32243;BME280;18731;42.830;24.390;2023-02-19T05:49:31;94824.63;;;2.05;80.99
32243;BME280;18731;42.830;24.390;2023-02-19T05:51:57;94847.25;;;2.21;81.00
32243;BME280;18731;42.830;24.390;2023-02-19T05:54:22;94855.16;;;2.21;80.62
32243;BME280;18731;42.830;24.390;2023-02-19T05:56:48;94860.41;;;2.26;80.07
32243;BME280;18731;42.830;24.390;2023-02-19T05:59:15;94855.69;;;2.23;80.52
32243;BME280;18731;42.830;24.390;2023-02-19T06:01:40;94864.63;;;2.32;80.69
32243;BME280;18731;42.830;24.390;2023-02-19T06:04:07;94866.47;;;2.21;80.45
32243;BME280;18731;42.830;24.390;2023-02-19T06:06:33;94856.22;;;2.20;80.37
32243;BME280;18731;42.830;24.390;2023-02-19T06:08:58;94873.59;;;2.16;80.77
32243;BME280;18731;42.830;24.390;2023-02-19T06:11:24;94875.47;;;2.00;81.19
32243;BME280;18731;42.830;24.390;2023-02-19T06:13:50;94890.44;;;2.25;81.26
32243;BME280;18731;42.830;24.390;2023-02-19T06:16:16;94881.97;;;2.43;81.50
32243;BME280;18731;42.830;24.390;2023-02-19T06:18:43;94888.00;;;2.69;81.40
32243;BME280;18731;42.830;24.390;2023-02-19T06:21:10;94886.63;;;2.87;80.61
32243;BME280;18731;42.830;24.390;2023-02-19T06:23:36;94887.06;;;3.09;80.07
32243;BME280;18731;42.830;24.390;2023-02-19T06:26:09;94889.06;;;3.33;79.50
32243;BME280;18731;42.830;24.390;2023-02-19T06:28:36;94888.41;;;3.56;78.04
32243;BME280;18731;42.830;24.390;2023-02-19T06:31:03;94880.03;;;3.83;77.58
32243;BME280;18731;42.830;24.390;2023-02-19T06:33:29;94884.84;;;4.10;76.41
32243;BME280;18731;42.830;24.390;2023-02-19T06:36:00;94886.69;;;4.38;75.13
32243;BME280;18731;42.830;24.390;2023-02-19T06:38:27;94885.72;;;4.58;73.40
32243;BME280;18731;42.830;24.390;2023-02-19T06:40:52;94867.16;;;4.63;72.54
32243;BME280;18731;42.830;24.390;2023-02-19T06:43:18;94854.50;;;4.84;71.62
32243;BME280;18731;42.830;24.390;2023-02-19T06:45:44;94881.59;;;5.18;71.42
32243;BME280;18731;42.830;24.390;2023-02-19T06:48:09;94892.66;;;5.44;70.42
32243;BME280;18731;42.830;24.390;2023-02-19T06:50:35;94884.38;;;5.70;69.58
32243;BME280;18731;42.830;24.390;2023-02-19T06:53:01;94882.16;;;5.96;68.27
32243;BME280;18731;42.830;24.390;2023-02-19T06:55:26;94879.03;;;6.26;67.37
32243;BME280;18731;42.830;24.390;2023-02-19T06:57:52;94877.84;;;6.32;66.14
32243;BME280;18731;42.830;24.390;2023-02-19T07:00:17;94885.09;;;6.73;66.11
32243;BME280;18731;42.830;24.390;2023-02-19T07:02:43;94880.97;;;7.08;64.66
32243;BME280;18731;42.830;24.390;2023-02-19T07:05:09;94869.75;;;7.25;63.27
32243;BME280;18731;42.830;24.390;2023-02-19T07:07:34;94855.56;;;7.43;62.10
32243;BME280;18731;42.830;24.390;2023-02-19T07:10:00;94873.69;;;7.77;60.67
32243;BME280;18731;42.830;24.390;2023-02-19T07:12:25;94865.44;;;8.01;60.95
32243;BME280;18731;42.830;24.390;2023-02-19T07:14:51;94867.19;;;8.28;60.96
32243;BME280;18731;42.830;24.390;2023-02-19T07:17:17;94860.56;;;8.39;60.44
32243;BME280;18731;42.830;24.390;2023-02-19T07:19:42;94860.19;;;8.54;59.97
32243;BME280;18731;42.830;24.390;2023-02-19T07:22:08;94863.63;;;8.55;59.75
32243;BME280;18731;42.830;24.390;2023-02-19T07:24:33;94868.56;;;8.70;59.55
32243;BME280;18731;42.830;24.390;2023-02-19T07:26:59;94864.00;;;8.70;59.52
32243;BME280;18731;42.830;24.390;2023-02-19T07:29:25;94868.19;;;8.63;59.21
32243;BME280;18731;42.830;24.390;2023-02-19T07:31:50;94857.69;;;8.58;59.00
32243;BME280;18731;42.830;24.390;2023-02-19T07:34:16;94848.09;;;8.79;58.73
32243;BME280;18731;42.830;24.390;2023-02-19T07:36:41;94868.41;;;9.15;59.03
32243;BME280;18731;42.830;24.390;2023-02-19T07:39:11;94849.31;;;9.21;58.20
32243;BME280;18731;42.830;24.390;2023-02-19T07:41:37;94855.81;;;9.55;57.44
32243;BME280;18731;42.830;24.390;2023-02-19T07:44:03;94860.38;;;9.89;56.60
32243;BME280;18731;42.830;24.390;2023-02-19T07:46:29;94853.00;;;10.20;56.51
32243;BME280;18731;42.830;24.390;2023-02-19T07:48:56;94864.44;;;10.47;54.93
32243;BME280;18731;42.830;24.390;2023-02-19T07:51:23;94858.78;;;10.57;53.85
32243;BME280;18731;42.830;24.390;2023-02-19T07:53:49;94851.00;;;10.81;54.29
32243;BME280;18731;42.830;24.390;2023-02-19T07:56:16;94852.13;;;11.10;53.09
32243;BME280;18731;42.830;24.390;2023-02-19T07:58:42;94846.56;;;11.23;51.21
32243;BME280;18731;42.830;24.390;2023-02-19T08:01:16;94867.47;;;11.51;51.27
32243;BME280;18731;42.830;24.390;2023-02-19T08:03:43;94852.19;;;11.81;51.40
32243;BME280;18731;42.830;24.390;2023-02-19T08:06:09;94858.50;;;12.18;50.01
32243;BME280;18731;42.830;24.390;2023-02-19T08:08:36;94850.91;;;12.41;48.13
32243;BME280;18731;42.830;24.390;2023-02-19T08:11:04;94852.16;;;12.55;47.84
32243;BME280;18731;42.830;24.390;2023-02-19T08:13:49;94855.22;;;12.78;46.84
32243;BME280;18731;42.830;24.390;2023-02-19T08:16:16;94848.88;;;12.95;46.03
32243;BME280;18731;42.830;24.390;2023-02-19T08:18:45;94842.34;;;13.05;45.72
32243;BME280;18731;42.830;24.390;2023-02-19T08:21:11;94829.84;;;13.33;45.35
32243;BME280;18731;42.830;24.390;2023-02-19T08:23:38;94839.78;;;13.57;44.80
32243;BME280;18731;42.830;24.390;2023-02-19T08:26:04;94845.13;;;13.69;44.85
32243;BME280;18731;42.830;24.390;2023-02-19T08:28:30;94846.22;;;13.80;43.78
32243;BME280;18731;42.830;24.390;2023-02-19T08:31:02;94844.13;;;14.02;43.80
32243;BME280;18731;42.830;24.390;2023-02-19T08:33:28;94843.28;;;14.26;43.02
32243;BME280;18731;42.830;24.390;2023-02-19T08:35:55;94834.81;;;14.67;42.25
32243;BME280;18731;42.830;24.390;2023-02-19T08:38:21;94803.16;;;14.45;42.52
32243;BME280;18731;42.830;24.390;2023-02-19T08:40:47;94821.38;;;15.15;41.92
32243;BME280;18731;42.830;24.390;2023-02-19T08:43:15;94825.47;;;14.93;41.24
32243;BME280;18731;42.830;24.390;2023-02-19T08:45:43;94819.06;;;14.82;41.28
32243;BME280;18731;42.830;24.390;2023-02-19T08:48:10;94822.53;;;14.98;41.30
32243;BME280;18731;42.830;24.390;2023-02-19T08:50:37;94811.56;;;15.22;40.68
32243;BME280;18731;42.830;24.390;2023-02-19T08:53:04;94809.97;;;15.53;40.37
32243;BME280;18731;42.830;24.390;2023-02-19T08:55:31;94798.19;;;15.41;40.15
32243;BME280;18731;42.830;24.390;2023-02-19T08:57:56;94801.56;;;15.89;39.83
32243;BME280;18731;42.830;24.390;2023-02-19T09:00:22;94797.19;;;16.00;38.90
32243;BME280;18731;42.830;24.390;2023-02-19T09:02:48;94799.38;;;15.60;39.18
32243;BME280;18731;42.830;24.390;2023-02-19T09:05:14;94794.34;;;16.13;38.82
32243;BME280;18731;42.830;24.390;2023-02-19T09:07:40;94782.56;;;16.21;38.40
32243;BME280;18731;42.830;24.390;2023-02-19T09:10:07;94785.28;;;16.21;38.07
32243;BME280;18731;42.830;24.390;2023-02-19T09:12:34;94781.72;;;16.59;37.57
32243;BME280;18731;42.830;24.390;2023-02-19T09:15:00;94765.50;;;16.55;37.11
32243;BME280;18731;42.830;24.390;2023-02-19T09:17:26;94777.34;;;16.51;37.71
32243;BME280;18731;42.830;24.390;2023-02-19T09:19:52;94759.25;;;16.70;36.67
32243;BME280;18731;42.830;24.390;2023-02-19T09:22:17;94776.72;;;17.03;36.52
32243;BME280;18731;42.830;24.390;2023-02-19T09:24:43;94776.84;;;17.10;36.14
32243;BME280;18731;42.830;24.390;2023-02-19T09:27:14;94779.94;;;17.12;36.09
32243;BME280;18731;42.830;24.390;2023-02-19T09:29:40;94781.91;;;17.42;35.84
32243;BME280;18731;42.830;24.390;2023-02-19T09:32:05;94764.88;;;16.85;36.35
32243;BME280;18731;42.830;24.390;2023-02-19T09:34:31;94763.44;;;16.91;36.50
32243;BME280;18731;42.830;24.390;2023-02-19T09:36:56;94773.78;;;17.12;36.27
32243;BME280;18731;42.830;24.390;2023-02-19T09:39:22;94755.81;;;17.23;36.29
32243;BME280;18731;42.830;24.390;2023-02-19T09:41:51;94770.97;;;17.31;35.98
32243;BME280;18731;42.830;24.390;2023-02-19T09:44:28;94765.44;;;17.20;36.33
32243;BME280;18731;42.830;24.390;2023-02-19T09:46:55;94769.78;;;17.55;35.84
32243;BME280;18731;42.830;24.390;2023-02-19T09:49:39;94766.41;;;17.91;36.84
32243;BME280;18731;42.830;24.390;2023-02-19T09:52:18;94759.53;;;17.97;34.97
32243;BME280;18731;42.830;24.390;2023-02-19T09:54:48;94750.19;;;18.21;34.74
32243;BME280;18731;42.830;24.390;2023-02-19T09:57:17;94745.31;;;18.34;34.61
32243;BME280;18731;42.830;24.390;2023-02-19T09:59:51;94743.31;;;18.27;34.60
32243;BME280;18731;42.830;24.390;2023-02-19T10:02:20;94739.53;;;18.36;34.43
32243;BME280;18731;42.830;24.390;2023-02-19T10:04:47;94735.91;;;18.58;34.03
32243;BME280;18731;42.830;24.390;2023-02-19T10:07:18;94726.81;;;18.77;34.02
32243;BME280;18731;42.830;24.390;2023-02-19T10:09:50;94739.31;;;18.51;34.07
32243;BME280;18731;42.830;24.390;2023-02-19T10:12:28;94717.13;;;18.72;33.87
32243;BME280;18731;42.830;24.390;2023-02-19T10:17:43;94709.41;;;18.74;33.81
32243;BME280;18731;42.830;24.390;2023-02-19T10:20:17;94697.06;;;18.77;33.77
32243;BME280;18731;42.830;24.390;2023-02-19T10:22:44;94705.56;;;18.75;33.89
32243;BME280;18731;42.830;24.390;2023-02-19T10:25:15;94700.22;;;18.86;34.33
32243;BME280;18731;42.830;24.390;2023-02-19T10:27:41;94690.22;;;18.90;33.61
32243;BME280;18731;42.830;24.390;2023-02-19T10:30:32;94697.97;;;18.91;33.91
32243;BME280;18731;42.830;24.390;2023-02-19T10:33:08;94684.72;;;19.38;33.34
32243;BME280;18731;42.830;24.390;2023-02-19T10:35:36;94681.75;;;18.95;33.71
32243;BME280;18731;42.830;24.390;2023-02-19T10:38:04;94681.00;;;18.98;33.58
32243;BME280;18731;42.830;24.390;2023-02-19T10:40:32;94679.75;;;18.85;33.91
32243;BME280;18731;42.830;24.390;2023-02-19T10:43:01;94674.94;;;19.15;33.74
32243;BME280;18731;42.830;24.390;2023-02-19T10:47:56;94663.16;;;18.42;34.57
32243;BME280;18731;42.830;24.390;2023-02-19T10:50:32;94654.59;;;17.96;34.80
32243;BME280;18731;42.830;24.390;2023-02-19T10:52:59;94658.81;;;17.93;35.42
32243;BME280;18731;42.830;24.390;2023-02-19T10:55:29;94646.59;;;18.47;34.10
32243;BME280;18731;42.830;24.390;2023-02-19T10:57:56;94640.72;;;18.86;33.93
32243;BME280;18731;42.830;24.390;2023-02-19T11:00:25;94640.22;;;19.32;32.92
32243;BME280;18731;42.830;24.390;2023-02-19T11:03:16;94636.53;;;19.72;32.76
32243;BME280;18731;42.830;24.390;2023-02-19T11:06:02;94640.41;;;19.67;32.33
32243;BME280;18731;42.830;24.390;2023-02-19T11:08:29;94610.97;;;19.62;32.33
32243;BME280;18731;42.830;24.390;2023-02-19T11:10:58;94622.25;;;19.78;32.11
32243;BME280;18731;42.830;24.390;2023-02-19T11:13:31;94626.72;;;19.39;32.96
32243;BME280;18731;42.830;24.390;2023-02-19T11:15:58;94627.16;;;19.48;32.73
32243;BME280;18731;42.830;24.390;2023-02-19T11:18:27;94614.13;;;19.75;32.33
32243;BME280;18731;42.830;24.390;2023-02-19T11:20:56;94612.59;;;19.91;32.19
32243;BME280;18731;42.830;24.390;2023-02-19T11:23:42;94616.47;;;19.87;31.94
32243;BME280;18731;42.830;24.390;2023-02-19T11:26:18;94607.22;;;20.16;31.57
32243;BME280;18731;42.830;24.390;2023-02-19T11:28:57;94604.13;;;20.25;31.85
32243;BME280;18731;42.830;24.390;2023-02-19T11:31:32;94613.44;;;20.24;31.63
32243;BME280;18731;42.830;24.390;2023-02-19T11:36:30;94604.16;;;20.78;30.55
32243;BME280;18731;42.830;24.390;2023-02-19T11:39:19;94596.38;;;20.06;31.88
32243;BME280;18731;42.830;24.390;2023-02-19T11:41:50;94594.06;;;20.08;31.87
32243;BME280;18731;42.830;24.390;2023-02-19T11:50:22;94592.25;;;19.21;33.02
32243;BME280;18731;42.830;24.390;2023-02-19T11:53:08;94583.34;;;18.59;34.11
32243;BME280;18731;42.830;24.390;2023-02-19T12:07:27;94548.00;;;18.82;33.83
32243;BME280;18731;42.830;24.390;2023-02-19T12:15:31;94544.72;;;18.55;34.11
32243;BME280;18731;42.830;24.390;2023-02-19T12:21:03;94524.06;;;18.84;33.77
32243;BME280;18731;42.830;24.390;2023-02-19T12:24:00;94519.63;;;19.38;33.37
32243;BME280;18731;42.830;24.390;2023-02-19T12:26:50;94514.31;;;19.77;32.27
32243;BME280;18731;42.830;24.390;2023-02-19T12:29:23;94510.75;;;19.44;32.94
32243;BME280;18731;42.830;24.390;2023-02-19T12:37:55;94502.69;;;19.69;32.51
32243;BME280;18731;42.830;24.390;2023-02-19T12:40:49;94498.84;;;20.02;32.08
32243;BME280;18731;42.830;24.390;2023-02-19T12:43:21;94494.16;;;20.56;31.33
32243;BME280;18731;42.830;24.390;2023-02-19T12:46:03;94496.38;;;21.00;31.04
32243;BME280;18731;42.830;24.390;2023-02-19T12:48:33;94487.53;;;21.62;29.68
32243;BME280;18731;42.830;24.390;2023-02-19T12:51:39;94487.84;;;21.02;30.03
32243;BME280;18731;42.830;24.390;2023-02-19T12:57:01;94483.16;;;21.79;29.13
32243;BME280;18731;42.830;24.390;2023-02-19T13:10:44;94463.25;;;23.43;26.50
32243;BME280;18731;42.830;24.390;2023-02-19T13:13:18;94463.53;;;23.79;26.50
32243;BME280;18731;42.830;24.390;2023-02-19T13:15:48;94449.59;;;23.73;26.16
32243;BME280;18731;42.830;24.390;2023-02-19T13:18:21;94451.41;;;24.30;25.46
32243;BME280;18731;42.830;24.390;2023-02-19T13:20:49;94434.34;;;24.26;25.25
32243;BME280;18731;42.830;24.390;2023-02-19T13:23:30;94440.75;;;24.59;25.70
32243;BME280;18731;42.830;24.390;2023-02-19T13:26:37;94429.91;;;24.76;24.72
32243;BME280;18731;42.830;24.390;2023-02-19T13:30:01;94437.81;;;25.10;24.54
32243;BME280;18731;42.830;24.390;2023-02-19T13:37:34;94430.16;;;24.18;25.03
32243;BME280;18731;42.830;24.390;2023-02-19T13:40:05;94425.84;;;23.97;25.44
32243;BME280;18731;42.830;24.390;2023-02-19T13:42:33;94423.63;;;23.35;26.56
32243;BME280;18731;42.830;24.390;2023-02-19T13:45:01;94425.06;;;22.52;27.50
32243;BME280;18731;42.830;24.390;2023-02-19T13:53:01;94407.13;;;19.94;31.11
32243;BME280;18731;42.830;24.390;2023-02-19T13:55:49;94406.31;;;19.18;32.61
32243;BME280;18731;42.830;24.390;2023-02-19T14:01:01;94406.16;;;17.96;34.25
32243;BME280;18731;42.830;24.390;2023-02-19T14:06:05;94398.28;;;16.88;35.57
32243;BME280;18731;42.830;24.390;2023-02-19T14:11:16;94405.34;;;16.33;36.95
32243;BME280;18731;42.830;24.390;2023-02-19T14:16:47;94399.16;;;15.53;38.56
32243;BME280;18731;42.830;24.390;2023-02-19T14:30:58;94400.78;;;14.12;41.69
32243;BME280;18731;42.830;24.390;2023-02-19T14:33:35;94403.28;;;13.86;42.68
32243;BME280;18731;42.830;24.390;2023-02-19T14:38:59;94406.28;;;13.49;43.72
32243;BME280;18731;42.830;24.390;2023-02-19T14:41:29;94399.63;;;13.43;43.82
32243;BME280;18731;42.830;24.390;2023-02-19T14:43:58;94396.44;;;13.37;44.31
32243;BME280;18731;42.830;24.390;2023-02-19T14:46:33;94394.81;;;13.17;44.30
32243;BME280;18731;42.830;24.390;2023-02-19T14:49:18;94396.84;;;13.08;44.61
32243;BME280;18731;42.830;24.390;2023-02-19T14:51:50;94388.94;;;12.83;45.44
32243;BME280;18731;42.830;24.390;2023-02-19T14:54:32;94396.69;;;12.73;45.79
32243;BME280;18731;42.830;24.390;2023-02-19T14:57:00;94391.56;;;12.52;46.22
32243;BME280;18731;42.830;24.390;2023-02-19T14:59:29;94388.00;;;12.48;46.62
32243;BME280;18731;42.830;24.390;2023-02-19T15:02:01;94390.50;;;12.41;46.00
32243;BME280;18731;42.830;24.390;2023-02-19T15:04:33;94385.63;;;12.31;46.69
32243;BME280;18731;42.830;24.390;2023-02-19T15:07:02;94389.16;;;12.07;47.50
32243;BME280;18731;42.830;24.390;2023-02-19T15:09:41;94375.38;;;11.93;48.25
32243;BME280;18731;42.830;24.390;2023-02-19T15:12:15;94382.75;;;11.83;48.95
32243;BME280;18731;42.830;24.390;2023-02-19T15:14:42;94375.75;;;11.67;49.14
32243;BME280;18731;42.830;24.390;2023-02-19T15:17:15;94397.13;;;11.67;49.02
32243;BME280;18731;42.830;24.390;2023-02-19T15:19:47;94397.25;;;11.46;49.38
32243;BME280;18731;42.830;24.390;2023-02-19T15:22:19;94391.16;;;11.33;49.67
32243;BME280;18731;42.830;24.390;2023-02-19T15:24:45;94398.72;;;11.19;50.90
32243;BME280;18731;42.830;24.390;2023-02-19T15:27:31;94396.78;;;10.95;50.74
32243;BME280;18731;42.830;24.390;2023-02-19T15:29:59;94403.09;;;10.78;50.88
32243;BME280;18731;42.830;24.390;2023-02-19T15:32:26;94398.50;;;10.67;51.98
32243;BME280;18731;42.830;24.390;2023-02-19T15:34:57;94392.69;;;10.52;51.57
32243;BME280;18731;42.830;24.390;2023-02-19T15:37:28;94397.84;;;10.37;53.76
32243;BME280;18731;42.830;24.390;2023-02-19T15:39:56;94408.63;;;10.19;53.79
32243;BME280;18731;42.830;24.390;2023-02-19T15:44:54;94398.03;;;9.90;54.87
32243;BME280;18731;42.830;24.390;2023-02-19T15:47:34;94388.88;;;9.79;54.89
32243;BME280;18731;42.830;24.390;2023-02-19T15:50:04;94397.56;;;9.67;54.86
32243;BME280;18731;42.830;24.390;2023-02-19T15:58:06;94396.72;;;9.25;56.26
32243;BME280;18731;42.830;24.390;2023-02-19T16:00:49;94406.47;;;9.21;56.16
32243;BME280;18731;42.830;24.390;2023-02-19T16:03:19;94400.38;;;9.12;55.86
32243;BME280;18731;42.830;24.390;2023-02-19T16:08:33;94399.34;;;8.95;57.24
32243;BME280;18731;42.830;24.390;2023-02-19T16:11:01;94413.13;;;8.97;57.35
32243;BME280;18731;42.830;24.390;2023-02-19T16:13:33;94414.88;;;8.93;57.32
32243;BME280;18731;42.830;24.390;2023-02-19T16:16:02;94418.50;;;8.80;57.45
32243;BME280;18731;42.830;24.390;2023-02-19T16:18:31;94415.56;;;8.64;58.25
32243;BME280;18731;42.830;24.390;2023-02-19T16:20:57;94427.16;;;8.68;57.99
32243;BME280;18731;42.830;24.390;2023-02-19T16:23:23;94428.91;;;8.56;58.47
32243;BME280;18731;42.830;24.390;2023-02-19T16:25:58;94444.72;;;8.52;59.11
32243;BME280;18731;42.830;24.390;2023-02-19T16:28:26;94423.44;;;8.44;59.23
32243;BME280;18731;42.830;24.390;2023-02-19T16:31:03;94423.59;;;8.38;58.83
32243;BME280;18731;42.830;24.390;2023-02-19T16:46:57;94427.66;;;7.93;60.70
32243;BME280;18731;42.830;24.390;2023-02-19T16:49:25;94423.59;;;7.87;61.13
32243;BME280;18731;42.830;24.390;2023-02-19T16:51:51;94422.78;;;7.78;60.63
32243;BME280;18731;42.830;24.390;2023-02-19T16:54:17;94426.41;;;7.82;60.79
32243;BME280;18731;42.830;24.390;2023-02-19T16:56:43;94433.41;;;7.78;61.56
32243;BME280;18731;42.830;24.390;2023-02-19T16:59:09;94426.50;;;7.68;61.46
32243;BME280;18731;42.830;24.390;2023-02-19T17:01:35;94445.56;;;7.70;61.79
32243;BME280;18731;42.830;24.390;2023-02-19T17:04:07;94452.75;;;7.69;61.83
32243;BME280;18731;42.830;24.390;2023-02-19T17:06:35;94458.69;;;7.58;62.09
32243;BME280;18731;42.830;24.390;2023-02-19T17:09:05;94463.22;;;7.57;62.52
32243;BME280;18731;42.830;24.390;2023-02-19T17:11:31;94471.78;;;7.54;62.18
32243;BME280;18731;42.830;24.390;2023-02-19T17:13:57;94477.25;;;7.49;62.69
32243;BME280;18731;42.830;24.390;2023-02-19T17:16:25;94482.22;;;7.42;61.83
32243;BME280;18731;42.830;24.390;2023-02-19T17:18:56;94482.53;;;7.40;61.72
32243;BME280;18731;42.830;24.390;2023-02-19T17:21:28;94468.00;;;6.98;65.25
32243;BME280;18731;42.830;24.390;2023-02-19T17:23:54;94491.47;;;7.14;64.14
32243;BME280;18731;42.830;24.390;2023-02-19T17:26:25;94493.78;;;7.06;63.81
32243;BME280;18731;42.830;24.390;2023-02-19T17:28:52;94498.00;;;7.07;64.23
32243;BME280;18731;42.830;24.390;2023-02-19T17:31:18;94501.16;;;7.09;64.81
32243;BME280;18731;42.830;24.390;2023-02-19T17:33:44;94511.41;;;7.02;64.82
32243;BME280;18731;42.830;24.390;2023-02-19T17:36:23;94512.16;;;6.94;64.14
32243;BME280;18731;42.830;24.390;2023-02-19T17:38:51;94519.03;;;6.95;63.88
32243;BME280;18731;42.830;24.390;2023-02-19T17:41:17;94519.50;;;6.97;64.49
32243;BME280;18731;42.830;24.390;2023-02-19T17:43:43;94524.81;;;6.97;64.00
32243;BME280;18731;42.830;24.390;2023-02-19T17:46:14;94533.69;;;6.93;63.79
32243;BME280;18731;42.830;24.390;2023-02-19T17:48:40;94538.81;;;6.89;63.83
32243;BME280;18731;42.830;24.390;2023-02-19T17:51:05;94525.13;;;6.73;65.46
32243;BME280;18731;42.830;24.390;2023-02-19T17:53:31;94546.34;;;6.73;66.53
32243;BME280;18731;42.830;24.390;2023-02-19T17:55:56;94548.81;;;6.70;66.21
32243;BME280;18731;42.830;24.390;2023-02-19T17:58:22;94542.91;;;6.73;65.70
32243;BME280;18731;42.830;24.390;2023-02-19T18:00:48;94529.41;;;6.61;65.62
32243;BME280;18731;42.830;24.390;2023-02-19T18:03:13;94558.81;;;6.73;65.38
32243;BME280;18731;42.830;24.390;2023-02-19T18:05:39;94556.13;;;6.64;65.78
32243;BME280;18731;42.830;24.390;2023-02-19T18:08:04;94565.47;;;6.62;66.00
32243;BME280;18731;42.830;24.390;2023-02-19T18:10:30;94555.88;;;6.52;66.02
32243;BME280;18731;42.830;24.390;2023-02-19T18:12:56;94576.19;;;6.57;66.14
32243;BME280;18731;42.830;24.390;2023-02-19T18:15:24;94592.69;;;6.54;65.80
32243;BME280;18731;42.830;24.390;2023-02-19T18:17:52;94574.09;;;6.31;66.24
32243;BME280;18731;42.830;24.390;2023-02-19T18:20:27;94589.59;;;6.38;66.75
32243;BME280;18731;42.830;24.390;2023-02-19T18:22:54;94595.97;;;6.37;67.53
32243;BME280;18731;42.830;24.390;2023-02-19T18:25:20;94598.72;;;6.32;67.93
32243;BME280;18731;42.830;24.390;2023-02-19T18:27:47;94603.47;;;6.21;67.47
32243;BME280;18731;42.830;24.390;2023-02-19T18:30:14;94609.16;;;6.28;67.96
32243;BME280;18731;42.830;24.390;2023-02-19T18:32:42;94623.97;;;6.29;67.79
32243;BME280;18731;42.830;24.390;2023-02-19T18:35:08;94619.38;;;6.21;67.71
32243;BME280;18731;42.830;24.390;2023-02-19T18:37:33;94612.50;;;6.20;67.67
32243;BME280;18731;42.830;24.390;2023-02-19T18:40:00;94613.28;;;6.21;68.49
32243;BME280;18731;42.830;24.390;2023-02-19T18:42:25;94631.53;;;6.22;68.36
32243;BME280;18731;42.830;24.390;2023-02-19T18:44:52;94626.25;;;6.22;68.15
32243;BME280;18731;42.830;24.390;2023-02-19T18:47:19;94628.41;;;6.20;68.59
32243;BME280;18731;42.830;24.390;2023-02-19T18:49:47;94636.34;;;6.20;69.30
32243;BME280;18731;42.830;24.390;2023-02-19T18:52:13;94648.63;;;6.16;68.10
32243;BME280;18731;42.830;24.390;2023-02-19T18:54:39;94618.59;;;6.07;67.88
32243;BME280;18731;42.830;24.390;2023-02-19T18:57:04;94641.53;;;6.25;67.71
32243;BME280;18731;42.830;24.390;2023-02-19T18:59:30;94648.03;;;6.19;68.09
32243;BME280;18731;42.830;24.390;2023-02-19T19:01:56;94637.81;;;6.12;68.43